Time;durP1;ratioP1;P1;durP2;ratioP2;P2;SDS_P1;SDS_P2;PMS_P1;PMS_P2;Temp;Humidity;BMP_temperature;BMP_pressure;BME280_temperature;BME280_humidity;BME280_pressure;Samples;Min_cycle;Max_cycle;Signal;HPM_P1;HPM_P2
2021/07/27 00:00:51;;;;;;;2.03;1.83;;;;;24.60;100083.00;;;;2049248;28;20220;-66
2021/07/27 00:01:51;;;;;;;1.60;1.50;;;;;24.60;100082.00;;;;2050626;28;20339;-67
2021/07/27 00:02:52;;;;;;;2.30;2.10;;;;;24.60;100079.00;;;;2059167;28;20223;-67
2021/07/27 00:03:52;;;;;;;1.77;1.67;;;;;24.60;100078.00;;;;2057747;28;20286;-67
2021/07/27 00:04:52;;;;;;;1.73;1.63;;;;;24.60;100080.00;;;;2059000;28;20234;-66
2021/07/27 00:05:53;;;;;;;1.80;1.70;;;;;24.60;100078.00;;;;2058242;28;20247;-67
2021/07/27 00:06:53;;;;;;;1.80;1.70;;;;;24.60;100082.00;;;;2058417;28;20233;-67
2021/07/27 00:07:54;;;;;;;1.83;1.67;;;;;24.60;100077.00;;;;2058368;28;20215;-67
2021/07/27 00:08:54;;;;;;;2.10;1.90;;;;;24.60;100083.00;;;;2058395;28;20212;-67
2021/07/27 00:09:54;;;;;;;1.63;1.53;;;;;24.60;100083.00;;;;2060128;28;20239;-67
2021/07/27 00:10:55;;;;;;;2.77;2.03;;;;;24.60;100080.00;;;;2058457;28;20242;-66
2021/07/27 00:11:55;;;;;;;1.90;1.80;;;;;24.60;100083.00;;;;2061332;28;20270;-67
2021/07/27 00:12:55;;;;;;;1.70;1.60;;;;;24.60;100074.00;;;;2059420;28;20250;-67
2021/07/27 00:13:56;;;;;;;1.90;1.80;;;;;24.60;100077.00;;;;2058436;28;20224;-67
2021/07/27 00:14:56;;;;;;;1.63;1.53;;;;;24.60;100085.00;;;;2059641;28;20299;-66
2021/07/27 00:15:56;;;;;;;1.87;1.77;;;;;24.60;100075.00;;;;2060401;28;20227;-67
2021/07/27 00:16:57;;;;;;;1.80;1.70;;;;;24.60;100079.00;;;;2051956;28;20238;-66
2021/07/27 00:17:57;;;;;;;1.90;1.80;;;;;24.60;100077.00;;;;2051877;28;20229;-67
2021/07/27 00:18:57;;;;;;;1.77;1.67;;;;;24.60;100079.00;;;;2059465;28;20309;-67
2021/07/27 00:19:58;;;;;;;2.03;1.63;;;;;24.60;100079.00;;;;2059104;28;20697;-67
2021/07/27 00:21:00;;;;;;;2.30;2.10;;;;;24.60;100077.00;;;;2058887;28;20755;-67
2021/07/27 00:22:00;;;;;;;2.10;1.90;;;;;24.60;100080.00;;;;2059273;28;20223;-67
2021/07/27 00:23:00;;;;;;;1.80;1.70;;;;;24.60;100075.00;;;;2060050;28;20203;-67
2021/07/27 00:24:01;;;;;;;2.07;1.90;;;;;24.60;100077.00;;;;2060141;28;20246;-67
2021/07/27 00:25:01;;;;;;;1.77;1.67;;;;;24.60;100080.00;;;;2060090;28;20344;-67
2021/07/27 00:26:02;;;;;;;1.80;1.70;;;;;24.60;100080.00;;;;2051530;28;20216;-67
2021/07/27 00:27:03;;;;;;;1.63;1.53;;;;;24.60;100078.00;;;;2050599;28;20220;-67
2021/07/27 00:28:03;;;;;;;1.93;1.73;;;;;24.60;100076.00;;;;2055350;28;20528;-66
2021/07/27 00:29:03;;;;;;;1.90;1.80;;;;;24.60;100081.00;;;;2057888;28;20207;-67
2021/07/27 00:30:06;;;;;;;1.90;1.80;;;;;24.60;100070.00;;;;2059354;28;20220;-67
2021/07/27 00:31:07;;;;;;;2.20;1.80;;;;;24.60;100082.00;;;;2060715;28;20250;-67
2021/07/27 00:32:08;;;;;;;1.73;1.63;;;;;24.60;100076.00;;;;2061384;28;20222;-67
2021/07/27 00:33:09;;;;;;;1.83;1.73;;;;;24.60;100083.00;;;;2060525;28;20208;-67
2021/07/27 00:34:09;;;;;;;1.73;1.63;;;;;24.60;100079.00;;;;2060343;28;20219;-67
2021/07/27 00:35:11;;;;;;;2.33;2.13;;;;;24.60;100086.00;;;;2060007;28;20219;-67
2021/07/27 00:36:12;;;;;;;1.70;1.60;;;;;24.60;100079.00;;;;2059678;28;21150;-67
2021/07/27 00:37:20;;;;;;;1.70;1.60;;;;;24.50;100079.00;;;;2059769;28;20214;-67
2021/07/27 00:38:22;;;;;;;2.10;1.90;;;;;24.60;100080.00;;;;2060387;28;20216;-67
2021/07/27 00:39:22;;;;;;;1.75;1.65;;;;;24.60;100082.00;;;;2059962;28;20219;-67
2021/07/27 00:40:23;;;;;;;1.60;1.50;;;;;24.60;100079.00;;;;2059863;28;20219;-67
2021/07/27 00:41:23;;;;;;;1.80;1.70;;;;;24.60;100081.00;;;;2060277;28;20229;-67
2021/07/27 00:42:23;;;;;;;2.17;1.90;;;;;24.60;100077.00;;;;2059902;28;20219;-67
2021/07/27 00:43:24;;;;;;;1.70;1.60;;;;;24.60;100074.00;;;;2059787;28;20682;-67
2021/07/27 00:44:24;;;;;;;1.97;1.87;;;;;24.60;100086.00;;;;2059724;28;20682;-66
2021/07/27 00:45:24;;;;;;;1.80;1.70;;;;;24.60;100077.00;;;;2059639;28;20694;-67
2021/07/27 00:46:25;;;;;;;2.10;2.00;;;;;24.60;100080.00;;;;2059687;28;20695;-67
2021/07/27 00:47:25;;;;;;;2.13;1.93;;;;;24.60;100083.00;;;;2060474;28;20753;-66
2021/07/27 00:48:25;;;;;;;1.67;1.57;;;;;24.60;100080.00;;;;2060488;28;20605;-67
2021/07/27 00:49:26;;;;;;;1.80;1.70;;;;;24.60;100081.00;;;;2060342;28;20211;-67
2021/07/27 00:50:26;;;;;;;1.97;1.87;;;;;24.60;100088.00;;;;2051135;28;20212;-67
2021/07/27 00:51:28;;;;;;;1.70;1.60;;;;;24.60;100084.00;;;;2054439;28;20299;-67
2021/07/27 00:52:29;;;;;;;2.33;2.13;;;;;24.60;100086.00;;;;2059489;28;20513;-67
2021/07/27 00:53:29;;;;;;;2.20;2.00;;;;;24.60;100090.00;;;;2059577;28;20270;-67
2021/07/27 00:54:29;;;;;;;2.07;1.90;;;;;24.60;100094.00;;;;2050333;28;20213;-67
2021/07/27 00:55:30;;;;;;;1.90;1.70;;;;;24.60;100094.00;;;;2050556;28;20214;-67
2021/07/27 00:56:30;;;;;;;1.80;1.70;;;;;24.60;100088.00;;;;2059167;28;20199;-67
2021/07/27 00:57:31;;;;;;;2.03;1.93;;;;;24.60;100089.00;;;;2059125;28;20211;-67
2021/07/27 00:58:31;;;;;;;2.03;1.93;;;;;24.60;100093.00;;;;2059179;28;20219;-67
2021/07/27 00:59:31;;;;;;;1.80;1.70;;;;;24.60;100098.00;;;;2059565;28;20675;-67
2021/07/27 01:00:32;;;;;;;2.00;1.90;;;;;24.60;100094.00;;;;2058987;28;20223;-67
2021/07/27 01:01:32;;;;;;;2.03;1.83;;;;;24.60;100083.00;;;;2063060;28;20207;-67
2021/07/27 01:02:32;;;;;;;2.13;1.93;;;;;24.60;100093.00;;;;2062555;28;20203;-66
2021/07/27 01:03:33;;;;;;;1.83;1.73;;;;;24.60;100101.00;;;;2061411;28;20256;-67
2021/07/27 01:04:33;;;;;;;2.10;1.90;;;;;24.60;100085.00;;;;2050555;28;20744;-67
2021/07/27 01:05:33;;;;;;;1.97;1.83;;;;;24.60;100099.00;;;;2042180;29;20224;-66
2021/07/27 01:06:34;;;;;;;4.70;2.20;;;;;24.60;100093.00;;;;2050134;28;20264;-67
2021/07/27 01:07:34;;;;;;;2.00;1.90;;;;;24.60;100091.00;;;;2058891;28;20271;-67
2021/07/27 01:08:35;;;;;;;2.10;1.90;;;;;24.60;100098.00;;;;2051101;28;20299;-67
2021/07/27 01:09:35;;;;;;;2.03;1.93;;;;;24.60;100090.00;;;;2051297;28;20213;-66
2021/07/27 01:10:35;;;;;;;2.10;2.00;;;;;24.60;100093.00;;;;2058719;28;20298;-67
2021/07/27 01:11:40;;;;;;;2.40;2.20;;;;;24.60;100093.00;;;;2059588;28;20255;-67
2021/07/27 01:12:40;;;;;;;2.00;1.80;;;;;24.60;100094.00;;;;2058934;28;20213;-67
2021/07/27 01:13:40;;;;;;;2.20;2.00;;;;;24.60;100093.00;;;;2058951;28;20217;-67
2021/07/27 01:14:41;;;;;;;1.93;1.83;;;;;24.60;100093.00;;;;2058904;28;20214;-67
2021/07/27 01:15:41;;;;;;;2.03;1.93;;;;;24.60;100081.00;;;;2058815;28;20215;-67
2021/07/27 01:16:42;;;;;;;1.90;1.80;;;;;24.60;100093.00;;;;2059647;28;20242;-67
2021/07/27 01:17:43;;;;;;;1.70;1.60;;;;;24.60;100093.00;;;;2050889;28;20703;-67
2021/07/27 01:18:55;;;;;;;2.40;2.20;;;;;24.60;100096.00;;;;2050787;28;20243;-67
2021/07/27 01:20:00;;;;;;;2.00;1.80;;;;;24.60;100097.00;;;;2058744;28;20694;-66
2021/07/27 01:40:18;;;;;;;2.13;2.00;;;;;24.50;100090.00;;;;2052306;28;20216;-67
2021/07/27 01:42:22;;;;;;;2.30;2.10;;;;;24.50;100096.00;;;;2059744;28;20298;-67
2021/07/27 01:43:28;;;;;;;2.03;1.80;;;;;24.60;100091.00;;;;2060066;28;20668;-67
2021/07/27 01:44:29;;;;;;;2.47;2.28;;;;;24.50;100093.00;;;;2060077;28;20203;-67
2021/07/27 01:45:29;;;;;;;2.20;2.00;;;;;24.50;100085.00;;;;2059525;28;20215;-67
2021/07/27 01:46:33;;;;;;;2.73;2.00;;;;;24.50;100087.00;;;;2059125;28;20705;-67
2021/07/27 01:47:34;;;;;;;2.20;2.00;;;;;24.50;100082.00;;;;2058913;28;20222;-67
2021/07/27 01:48:34;;;;;;;2.03;1.93;;;;;24.50;100101.00;;;;2059121;28;20226;-67
2021/07/27 01:49:34;;;;;;;1.70;1.60;;;;;24.60;100087.00;;;;2059528;28;20211;-67
2021/07/27 01:50:35;;;;;;;1.97;1.87;;;;;24.60;100095.00;;;;2059164;28;20204;-67
2021/07/27 01:51:45;;;;;;;1.80;1.70;;;;;24.60;100091.00;;;;2059968;28;20208;-67
2021/07/27 01:52:47;;;;;;;1.92;1.80;;;;;24.50;100091.00;;;;2059122;28;20674;-67
2021/07/27 01:53:52;;;;;;;2.75;1.88;;;;;24.50;100090.00;;;;2059160;28;20210;-67
2021/07/27 01:54:55;;;;;;;2.00;1.80;;;;;24.50;100100.00;;;;2058225;28;20216;-67
2021/07/27 01:55:55;;;;;;;1.98;1.85;;;;;24.50;100098.00;;;;2050389;28;20225;-67
2021/07/27 01:56:56;;;;;;;1.90;1.80;;;;;24.60;100095.00;;;;2050483;28;20215;-67
2021/07/27 01:57:56;;;;;;;2.40;2.20;;;;;24.50;100090.00;;;;2059129;28;20211;-67
2021/07/27 01:58:57;;;;;;;2.43;2.23;;;;;24.60;100096.00;;;;2058827;28;20228;-67
2021/07/27 01:59:58;;;;;;;2.20;2.10;;;;;24.60;100092.00;;;;2059515;28;20212;-67
2021/07/27 02:00:58;;;;;;;1.90;1.80;;;;;24.60;100090.00;;;;2059145;28;20270;-67
2021/07/27 02:01:58;;;;;;;2.10;2.00;;;;;24.60;100098.00;;;;2056169;28;20306;-67
2021/07/27 02:02:58;;;;;;;4.90;1.73;;;;;24.60;100097.00;;;;2054836;28;20216;-67
2021/07/27 02:03:59;;;;;;;2.17;1.97;;;;;24.60;100087.00;;;;2059728;28;20214;-67
2021/07/27 02:04:59;;;;;;;2.17;1.97;;;;;24.50;100086.00;;;;2059795;28;20215;-67
2021/07/27 02:05:59;;;;;;;2.23;2.03;;;;;24.50;100082.00;;;;2059503;28;20214;-67
2021/07/27 02:07:00;;;;;;;2.07;1.97;;;;;24.50;100087.00;;;;2059799;28;20218;-67
2021/07/27 02:08:00;;;;;;;1.87;1.77;;;;;24.50;100090.00;;;;2059729;28;20281;-67
2021/07/27 02:09:05;;;;;;;1.73;1.63;;;;;24.50;100082.00;;;;2059001;28;20214;-67
2021/07/27 02:10:09;;;;;;;2.00;1.90;;;;;24.50;100083.00;;;;2058243;28;20211;-67
2021/07/27 02:11:12;;;;;;;2.20;2.00;;;;;24.50;100078.00;;;;2058417;28;20280;-67
2021/07/27 02:12:18;;;;;;;2.15;1.95;;;;;24.60;100076.00;;;;2059769;28;20208;-67
2021/07/27 02:13:26;;;;;;;2.10;1.90;;;;;24.50;100080.00;;;;2059876;28;20258;-67
2021/07/27 02:15:46;;;;;;;2.20;2.03;;;;;24.50;100073.00;;;;2058738;28;20210;-67
2021/07/27 02:16:46;;;;;;;2.17;2.00;;;;;24.50;100074.00;;;;2058879;28;20207;-67
2021/07/27 02:17:47;;;;;;;2.40;2.20;;;;;24.50;100076.00;;;;2058831;28;20211;-67
2021/07/27 02:18:48;;;;;;;1.80;1.70;;;;;24.50;100083.00;;;;2058843;28;20706;-67
2021/07/27 02:19:48;;;;;;;2.13;1.93;;;;;24.50;100076.00;;;;2059346;28;20246;-66
2021/07/27 02:20:48;;;;;;;2.17;1.97;;;;;24.50;100081.00;;;;2058788;28;20767;-67
2021/07/27 02:21:49;;;;;;;2.37;2.17;;;;;24.50;100073.00;;;;2058143;28;20593;-67
2021/07/27 02:22:49;;;;;;;2.30;2.10;;;;;24.50;100075.00;;;;2059515;28;20617;-67
2021/07/27 02:23:49;;;;;;;2.10;1.90;;;;;24.50;100080.00;;;;2059295;28;20543;-67
2021/07/27 02:24:49;;;;;;;2.30;2.10;;;;;24.50;100079.00;;;;2058803;28;20636;-67
2021/07/27 02:25:50;;;;;;;2.47;2.27;;;;;24.50;100073.00;;;;2058912;28;20616;-67
2021/07/27 02:26:50;;;;;;;2.13;2.03;;;;;24.60;100069.00;;;;2059012;28;20750;-67
2021/07/27 02:27:50;;;;;;;1.90;1.80;;;;;24.50;100076.00;;;;2058903;28;20682;-67
2021/07/27 02:28:51;;;;;;;2.10;1.93;;;;;24.50;100062.00;;;;2059413;28;20235;-67
2021/07/27 02:29:51;;;;;;;2.03;1.93;;;;;24.50;100082.00;;;;2059520;28;20564;-67
2021/07/27 02:31:55;;;;;;;2.50;2.30;;;;;24.50;100064.00;;;;2059241;28;20218;-67
2021/07/27 02:32:55;;;;;;;2.17;2.03;;;;;24.50;100069.00;;;;2059496;28;20211;-67
2021/07/27 02:33:55;;;;;;;2.60;2.40;;;;;24.50;100077.00;;;;2061374;28;20234;-67
2021/07/27 02:34:56;;;;;;;2.50;2.30;;;;;24.50;100075.00;;;;2058523;28;20215;-67
2021/07/27 02:35:56;;;;;;;2.50;2.30;;;;;24.50;100078.00;;;;2058778;28;21800;-67
2021/07/27 02:36:57;;;;;;;2.57;2.37;;;;;24.50;100084.00;;;;2059575;28;20254;-67
2021/07/27 02:37:57;;;;;;;2.70;2.50;;;;;24.50;100089.00;;;;2059235;28;20228;-67
2021/07/27 02:39:01;;;;;;;2.73;2.53;;;;;24.50;100091.00;;;;2059416;28;20219;-67
2021/07/27 02:40:06;;;;;;;2.38;2.17;;;;;24.50;100095.00;;;;2059226;28;20226;-67
2021/07/27 02:41:06;;;;;;;2.33;2.13;;;;;24.50;100088.00;;;;2058057;28;20353;-67
2021/07/27 02:42:06;;;;;;;2.70;2.50;;;;;24.50;100091.00;;;;2058806;28;20238;-67
2021/07/27 02:43:07;;;;;;;2.10;1.90;;;;;24.50;100089.00;;;;2058735;28;20276;-67
2021/07/27 02:44:07;;;;;;;2.20;2.00;;;;;24.50;100090.00;;;;2059093;28;20239;-67
2021/07/27 02:45:11;;;;;;;2.50;2.30;;;;;24.50;100088.00;;;;2059430;28;20242;-67
2021/07/27 02:46:12;;;;;;;2.30;2.10;;;;;24.50;100090.00;;;;2059284;28;20234;-67
2021/07/27 02:47:12;;;;;;;2.10;1.90;;;;;24.50;100084.00;;;;2059548;28;20972;-67
2021/07/27 02:48:12;;;;;;;2.30;2.10;;;;;24.50;100089.00;;;;2058652;28;20218;-66
2021/07/27 02:49:13;;;;;;;2.30;2.10;;;;;24.50;100089.00;;;;2058483;28;20234;-67
2021/07/27 02:50:13;;;;;;;2.13;2.03;;;;;24.60;100090.00;;;;2058006;28;20869;-66
2021/07/27 02:51:13;;;;;;;2.47;2.27;;;;;24.50;100087.00;;;;2058593;28;20885;-67
2021/07/27 02:52:14;;;;;;;2.07;1.97;;;;;24.50;100089.00;;;;2059029;28;20626;-66
2021/07/27 02:53:15;;;;;;;2.37;2.17;;;;;24.50;100092.00;;;;2059424;28;20957;-67
2021/07/27 02:54:15;;;;;;;2.60;2.40;;;;;24.50;100085.00;;;;2059533;28;20577;-66
2021/07/27 02:55:16;;;;;;;2.40;2.20;;;;;24.50;100074.00;;;;2059261;28;20215;-67
2021/07/27 02:56:17;;;;;;;2.40;2.20;;;;;24.50;100080.00;;;;2059101;28;20214;-67
2021/07/27 02:57:17;;;;;;;2.45;2.25;;;;;24.50;100075.00;;;;2058742;28;20214;-67
2021/07/27 02:58:17;;;;;;;3.70;2.37;;;;;24.50;100080.00;;;;2058703;28;20678;-67
2021/07/27 02:59:18;;;;;;;2.40;2.20;;;;;24.50;100082.00;;;;2058352;28;20952;-67
2021/07/27 03:00:19;;;;;;;2.50;2.30;;;;;24.50;100080.00;;;;2058067;28;20243;-67
2021/07/27 03:01:19;;;;;;;2.43;2.23;;;;;24.50;100081.00;;;;2062164;28;20973;-67
2021/07/27 03:02:19;;;;;;;2.30;2.10;;;;;24.50;100082.00;;;;2061208;28;20291;-67
2021/07/27 03:03:20;;;;;;;2.57;2.20;;;;;24.50;100084.00;;;;2060497;28;20300;-67
2021/07/27 03:04:20;;;;;;;2.23;2.03;;;;;24.50;100088.00;;;;2059346;28;20230;-67
2021/07/27 03:05:21;;;;;;;2.40;2.20;;;;;24.50;100076.00;;;;2058197;28;20261;-67
2021/07/27 03:06:21;;;;;;;2.30;2.10;;;;;24.50;100086.00;;;;2057932;28;20273;-67
2021/07/27 03:07:31;;;;;;;2.60;2.40;;;;;24.50;100075.00;;;;2058237;28;20706;-66
2021/07/27 03:11:14;;;;;;;2.13;2.03;;;;;24.50;100082.00;;;;2039577;28;20650;-67
2021/07/27 03:12:15;;;;;;;2.37;2.20;;;;;24.50;100075.00;;;;2049476;28;20258;-66
2021/07/27 03:13:15;;;;;;;2.13;2.00;;;;;24.50;100078.00;;;;2057287;28;20231;-66
2021/07/27 03:14:15;;;;;;;2.53;2.33;;;;;24.50;100081.00;;;;2058201;28;20348;-66
2021/07/27 03:15:16;;;;;;;1.93;1.83;;;;;24.50;100082.00;;;;2059160;28;20222;-66
2021/07/27 03:16:17;;;;;;;2.65;2.45;;;;;24.50;100081.00;;;;2058685;28;20212;-67
2021/07/27 03:17:18;;;;;;;2.50;2.30;;;;;24.50;100075.00;;;;2059444;28;20773;-67
2021/07/27 03:18:18;;;;;;;2.47;2.27;;;;;24.50;100083.00;;;;2059372;28;20219;-68
2021/07/27 03:19:18;;;;;;;2.27;2.17;;;;;24.50;100080.00;;;;2058616;28;20262;-67
2021/07/27 03:20:19;;;;;;;2.43;2.23;;;;;24.50;100087.00;;;;2057367;28;20233;-67
2021/07/27 03:21:24;;;;;;;3.00;2.80;;;;;24.50;100089.00;;;;2058405;28;20214;-67
2021/07/27 03:22:25;;;;;;;2.20;2.00;;;;;24.50;100089.00;;;;2058653;28;20306;-67
2021/07/27 03:23:28;;;;;;;2.53;2.33;;;;;24.50;100085.00;;;;2050619;28;20600;-67
2021/07/27 03:24:28;;;;;;;2.40;2.20;;;;;24.50;100092.00;;;;2051191;28;20220;-67
2021/07/27 03:25:29;;;;;;;2.57;2.27;;;;;24.50;100085.00;;;;2059251;28;20207;-67
2021/07/27 03:26:29;;;;;;;2.00;1.90;;;;;24.50;100078.00;;;;2050388;28;20212;-67
2021/07/27 03:27:29;;;;;;;2.43;2.23;;;;;24.50;100085.00;;;;2049926;28;20203;-67
2021/07/27 03:28:30;;;;;;;2.50;2.30;;;;;24.50;100086.00;;;;2058493;28;20211;-67
2021/07/27 03:29:30;;;;;;;2.17;1.97;;;;;24.50;100080.00;;;;2058438;28;20203;-67
2021/07/27 03:30:31;;;;;;;2.50;2.30;;;;;24.50;100081.00;;;;2057842;28;20227;-67
2021/07/27 03:31:31;;;;;;;2.73;2.50;;;;;24.50;100091.00;;;;2061588;28;20227;-67
2021/07/27 03:32:33;;;;;;;2.50;2.30;;;;;24.50;100096.00;;;;2059753;28;20262;-67
2021/07/27 03:33:33;;;;;;;2.45;2.25;;;;;24.50;100101.00;;;;2061959;28;20214;-67
2021/07/27 03:34:33;;;;;;;2.50;2.30;;;;;24.50;100089.00;;;;2058948;28;20233;-67
2021/07/27 03:35:34;;;;;;;2.77;2.57;;;;;24.50;100091.00;;;;2058395;28;20215;-67
2021/07/27 03:36:34;;;;;;;2.80;2.60;;;;;24.50;100089.00;;;;2058510;28;20210;-67
2021/07/27 03:37:35;;;;;;;2.50;2.30;;;;;24.50;100091.00;;;;2058580;28;20211;-67
2021/07/27 03:38:39;;;;;;;2.47;2.27;;;;;24.50;100090.00;;;;2058448;28;22432;-67
2021/07/27 03:39:39;;;;;;;1.90;1.80;;;;;24.50;100090.00;;;;2058381;28;20659;-67
2021/07/27 03:40:40;;;;;;;1.97;1.80;;;;;24.50;100090.00;;;;2057936;28;20223;-67
2021/07/27 03:41:40;;;;;;;2.47;2.27;;;;;24.50;100088.00;;;;2058430;28;20258;-66
2021/07/27 03:42:40;;;;;;;2.80;2.60;;;;;24.50;100088.00;;;;2060919;28;20218;-67
2021/07/27 03:43:41;;;;;;;2.70;2.50;;;;;24.50;100088.00;;;;2060501;28;20223;-67
2021/07/27 03:44:41;;;;;;;2.50;2.30;;;;;24.50;100084.00;;;;2059613;28;20218;-67
2021/07/27 03:45:42;;;;;;;2.33;2.20;;;;;24.50;100090.00;;;;2058920;28;20722;-67
2021/07/27 03:46:45;;;;;;;2.20;2.00;;;;;24.50;100082.00;;;;2049767;28;20235;-67
2021/07/27 03:47:45;;;;;;;1.77;1.67;;;;;24.50;100087.00;;;;2050113;28;20223;-67
2021/07/27 03:48:45;;;;;;;2.57;2.37;;;;;24.50;100090.00;;;;2058411;28;20219;-67
2021/07/27 03:49:46;;;;;;;2.37;2.17;;;;;24.50;100090.00;;;;2058808;28;20211;-67
2021/07/27 03:50:46;;;;;;;2.70;2.50;;;;;24.50;100093.00;;;;2059348;28;20216;-67
2021/07/27 03:51:46;;;;;;;2.53;2.33;;;;;24.50;100084.00;;;;2060482;28;20218;-67
2021/07/27 03:52:47;;;;;;;2.47;2.27;;;;;24.50;100081.00;;;;2060434;28;20216;-67
2021/07/27 03:53:47;;;;;;;2.70;2.50;;;;;24.50;100076.00;;;;2060804;28;20239;-67
2021/07/27 03:54:47;;;;;;;2.30;2.20;;;;;24.50;100084.00;;;;2060733;28;20272;-67
2021/07/27 03:55:48;;;;;;;2.40;2.20;;;;;24.50;100086.00;;;;2051719;28;20769;-67
2021/07/27 03:56:48;;;;;;;2.40;2.20;;;;;24.50;100086.00;;;;2051488;28;20679;-67
2021/07/27 03:57:54;;;;;;;2.20;2.10;;;;;24.50;100086.00;;;;2059886;28;20218;-67
2021/07/27 03:58:55;;;;;;;2.80;2.60;;;;;24.50;100085.00;;;;2067103;28;21384;-67
2021/07/27 03:59:55;;;;;;;2.50;2.30;;;;;24.50;100094.00;;;;2067813;28;20218;-67
2021/07/27 04:00:55;;;;;;;2.80;2.60;;;;;24.50;100099.00;;;;2067289;28;20721;-68
2021/07/27 04:01:56;;;;;;;2.60;2.40;;;;;24.50;100085.00;;;;2067773;28;20237;-67
2021/07/27 04:02:56;;;;;;;2.60;2.40;;;;;24.50;100093.00;;;;2067303;28;20215;-67
2021/07/27 04:03:56;;;;;;;2.50;2.30;;;;;24.50;100085.00;;;;2067819;28;20230;-67
2021/07/27 04:04:57;;;;;;;3.00;2.80;;;;;24.50;100081.00;;;;2068294;28;20237;-67
2021/07/27 04:05:57;;;;;;;2.60;2.40;;;;;24.50;100090.00;;;;2068053;28;20223;-67
2021/07/27 04:06:57;;;;;;;3.00;2.50;;;;;24.50;100091.00;;;;2068254;28;20361;-67
2021/07/27 04:07:58;;;;;;;2.40;2.20;;;;;24.50;100089.00;;;;2068514;28;20214;-67
2021/07/27 04:08:58;;;;;;;2.80;2.60;;;;;24.50;100091.00;;;;2067917;28;20210;-67
2021/07/27 04:09:59;;;;;;;3.27;2.40;;;;;24.50;100097.00;;;;2067777;28;20210;-67
2021/07/27 04:11:01;;;;;;;2.93;2.73;;;;;24.50;100090.00;;;;2067353;28;20246;-67
2021/07/27 04:12:01;;;;;;;2.67;2.47;;;;;24.50;100094.00;;;;2068020;28;20686;-69
2021/07/27 04:13:01;;;;;;;2.73;2.53;;;;;24.50;100094.00;;;;2072211;28;20218;-67
2021/07/27 04:14:03;;;;;;;2.43;2.23;;;;;24.50;100099.00;;;;2068555;28;20230;-67
2021/07/27 04:15:04;;;;;;;2.83;2.58;;;;;24.50;100093.00;;;;2072244;28;20830;-67
2021/07/27 04:16:04;;;;;;;2.80;2.60;;;;;24.50;100097.00;;;;2068483;28;20227;-67
2021/07/27 04:17:05;;;;;;;2.20;2.10;;;;;24.50;100096.00;;;;2068664;28;20223;-66
2021/07/27 04:18:05;;;;;;;2.67;2.47;;;;;24.50;100098.00;;;;2068425;28;20229;-67
2021/07/27 04:19:06;;;;;;;2.43;2.23;;;;;24.50;100100.00;;;;2068549;28;20226;-67
2021/07/27 04:20:07;;;;;;;2.33;2.13;;;;;24.50;100095.00;;;;2068547;28;20218;-67
2021/07/27 04:21:07;;;;;;;2.47;2.27;;;;;24.50;100101.00;;;;2067162;28;20230;-67
2021/07/27 04:22:07;;;;;;;2.70;2.50;;;;;24.50;100099.00;;;;2067767;28;20268;-67
2021/07/27 04:23:08;;;;;;;2.63;2.43;;;;;24.50;100102.00;;;;2067489;28;20220;-67
2021/07/27 04:24:08;;;;;;;2.30;2.10;;;;;24.50;100099.00;;;;2067476;28;20221;-67
2021/07/27 04:25:09;;;;;;;2.57;2.37;;;;;24.50;100098.00;;;;2068145;28;20895;-67
2021/07/27 04:26:09;;;;;;;2.90;2.70;;;;;24.50;100100.00;;;;2068335;28;20242;-67
2021/07/27 04:27:09;;;;;;;2.50;2.30;;;;;24.50;100102.00;;;;2068655;28;20497;-67
2021/07/27 04:28:10;;;;;;;2.60;2.40;;;;;24.50;100105.00;;;;2068422;28;20228;-67
2021/07/27 04:29:10;;;;;;;2.90;2.70;;;;;24.50;100107.00;;;;2067726;28;20218;-67
2021/07/27 04:30:11;;;;;;;2.70;2.50;;;;;24.30;100125.00;;;;2067643;28;20233;-66
2021/07/27 04:31:11;;;;;;;2.53;2.33;;;;;24.50;100104.00;;;;2066869;28;20214;-67
2021/07/27 04:32:11;;;;;;;2.57;2.37;;;;;24.50;100101.00;;;;2059039;28;20215;-67
2021/07/27 04:33:12;;;;;;;2.47;2.27;;;;;24.50;100101.00;;;;2059167;28;20216;-67
2021/07/27 04:34:12;;;;;;;2.40;2.20;;;;;24.50;100108.00;;;;2068387;28;20238;-67
2021/07/27 04:35:12;;;;;;;2.87;2.67;;;;;24.50;100094.00;;;;2068481;28;20253;-67
2021/07/27 04:36:13;;;;;;;2.83;2.63;;;;;24.50;100103.00;;;;2068604;28;20223;-67
2021/07/27 04:37:13;;;;;;;2.43;2.20;;;;;24.50;100099.00;;;;2058672;28;20226;-67
2021/07/27 04:38:13;;;;;;;2.67;2.47;;;;;24.50;100103.00;;;;2067288;28;20232;-66
2021/07/27 04:39:13;;;;;;;2.50;2.30;;;;;24.50;100100.00;;;;2067196;28;20905;-67
2021/07/27 04:40:14;;;;;;;2.90;2.70;;;;;24.50;100108.00;;;;2069386;28;20649;-66
2021/07/27 04:41:14;;;;;;;2.53;2.33;;;;;24.50;100104.00;;;;2068484;28;20688;-67
2021/07/27 04:42:15;;;;;;;2.10;2.00;;;;;24.50;100100.00;;;;2068029;28;20207;-67
2021/07/27 04:43:15;;;;;;;3.00;2.80;;;;;24.50;100105.00;;;;2071267;28;20229;-67
2021/07/27 04:44:15;;;;;;;2.70;2.50;;;;;24.50;100103.00;;;;2069605;28;20267;-67
2021/07/27 04:45:16;;;;;;;2.80;2.60;;;;;24.50;100100.00;;;;2068543;28;20253;-67
2021/07/27 04:46:16;;;;;;;2.87;2.67;;;;;24.50;100099.00;;;;2068455;28;20219;-67
2021/07/27 04:47:16;;;;;;;2.40;2.20;;;;;24.50;100095.00;;;;2067816;28;20218;-67
2021/07/27 04:48:17;;;;;;;2.60;2.40;;;;;24.50;100102.00;;;;2068326;28;20237;-67
2021/07/27 04:49:17;;;;;;;2.93;2.73;;;;;24.50;100097.00;;;;2069122;28;20221;-68
2021/07/27 04:50:17;;;;;;;2.53;2.33;;;;;24.50;100095.00;;;;2067820;28;20234;-67
2021/07/27 04:51:18;;;;;;;2.80;2.47;;;;;24.50;100100.00;;;;2071171;28;20210;-67
2021/07/27 04:52:21;;;;;;;2.93;2.73;;;;;24.50;100095.00;;;;2068413;28;20685;-67
2021/07/27 04:53:23;;;;;;;2.85;2.65;;;;;24.50;100098.00;;;;2068359;28;20221;-67
2021/07/27 04:54:41;;;;;;;2.60;2.40;;;;;24.50;100097.00;;;;2068218;28;20292;-67
2021/07/27 04:55:42;;;;;;;3.00;2.80;;;;;24.50;100100.00;;;;2067423;28;20301;-67
2021/07/27 04:56:42;;;;;;;2.90;2.70;;;;;24.50;100091.00;;;;2068233;28;20215;-67
2021/07/27 04:57:43;;;;;;;2.83;2.37;;;;;24.50;100098.00;;;;2058334;28;20220;-67
2021/07/27 04:58:43;;;;;;;2.83;2.63;;;;;24.50;100094.00;;;;2059626;28;20656;-67
2021/07/27 04:59:43;;;;;;;2.63;2.47;;;;;24.50;100100.00;;;;2067845;28;20214;-67
2021/07/27 05:00:44;;;;;;;3.20;3.00;;;;;24.50;100095.00;;;;2067213;28;20249;-67
2021/07/27 05:01:44;;;;;;;2.70;2.50;;;;;24.50;100103.00;;;;2067642;28;20216;-67
2021/07/27 05:02:44;;;;;;;2.27;2.13;;;;;24.50;100098.00;;;;2067315;28;20305;-67
2021/07/27 05:03:45;;;;;;;2.80;2.60;;;;;24.50;100099.00;;;;2067535;28;20211;-67
2021/07/27 05:04:46;;;;;;;2.80;2.60;;;;;24.50;100101.00;;;;2067478;28;20269;-67
2021/07/27 05:05:47;;;;;;;2.58;2.38;;;;;24.50;100099.00;;;;2068215;28;20214;-67
2021/07/27 05:06:48;;;;;;;2.75;2.55;;;;;24.50;100101.00;;;;2068160;28;20210;-67
2021/07/27 05:07:48;;;;;;;3.30;3.00;;;;;24.50;100104.00;;;;2068369;28;20215;-67
2021/07/27 05:08:48;;;;;;;3.03;2.83;;;;;24.50;100102.00;;;;2068184;28;20242;-67
2021/07/27 05:09:49;;;;;;;2.80;2.60;;;;;24.50;100103.00;;;;2067278;28;20284;-67
2021/07/27 05:10:49;;;;;;;2.47;2.27;;;;;24.50;100099.00;;;;2066868;28;20218;-67
2021/07/27 05:11:49;;;;;;;2.57;2.37;;;;;24.50;100101.00;;;;2067510;28;20222;-67
2021/07/27 05:12:50;;;;;;;2.63;2.43;;;;;24.50;100110.00;;;;2067177;28;20222;-67
2021/07/27 05:13:53;;;;;;;3.17;2.97;;;;;24.50;100103.00;;;;2067819;28;20626;-67
2021/07/27 05:14:53;;;;;;;3.13;2.83;;;;;24.50;100107.00;;;;2070555;28;20225;-67
2021/07/27 05:15:53;;;;;;;2.70;2.50;;;;;24.50;100106.00;;;;2069261;28;20254;-67
2021/07/27 05:16:54;;;;;;;2.90;2.70;;;;;24.50;100107.00;;;;2067349;28;20211;-67
2021/07/27 05:18:01;;;;;;;2.80;2.60;;;;;24.50;100101.00;;;;2067982;28;20285;-67
2021/07/27 05:19:02;;;;;;;3.08;2.88;;;;;24.50;100102.00;;;;2059734;28;20220;-67
2021/07/27 05:20:03;;;;;;;2.70;2.50;;;;;24.50;100100.00;;;;2059850;28;20273;-66
2021/07/27 05:21:03;;;;;;;2.90;2.70;;;;;24.50;100106.00;;;;2058854;28;20273;-64
2021/07/27 05:22:03;;;;;;;3.03;2.83;;;;;24.50;100104.00;;;;2059283;28;20477;-67
2021/07/27 05:23:04;;;;;;;2.97;2.77;;;;;24.50;100104.00;;;;2059376;28;20219;-67
2021/07/27 05:24:04;;;;;;;2.50;2.30;;;;;24.50;100101.00;;;;2058826;28;20883;-66
2021/07/27 05:25:05;;;;;;;2.73;2.53;;;;;24.50;100107.00;;;;2058288;28;20251;-67
2021/07/27 05:26:05;;;;;;;2.80;2.60;;;;;24.50;100109.00;;;;2059642;28;20212;-66
2021/07/27 05:27:06;;;;;;;2.80;2.60;;;;;24.50;100096.00;;;;2059658;28;20228;-67